Terminal Aerodrome Forecast
Issued by NWS

Home | Current Version | Previous Version | Text Only | Print | Product List | Glossary On
Versions: 1 2 3 4 5 6 7 8 9 10 11 12 13 14
285
FTUS46 KLOX 141745 AAA
TAFPMD
TAF AMD
KPMD 141745Z 1418/1518 VRB03KT P6SM SCT250
     FM142000 04010KT P6SM SCT250
     FM150300 28005KT P6SM SCT250
     FM151200 VRB04KT P6SM SKC=

USA.gov is the U.S. government's official web portal to all federal, state and local government web resources and services.